createdAt,value
2023-01-04T00:00:40.846Z,94.17
2023-01-04T00:05:46.339Z,95.40
2023-01-04T00:10:49.182Z,95.47
2023-01-04T00:15:52.131Z,94.50
2023-01-04T00:20:56.674Z,93.62
2023-01-04T00:25:59.525Z,95.26
2023-01-04T00:31:03.690Z,94.67
2023-01-04T00:36:12.063Z,93.49
2023-01-04T00:41:42.055Z,93.31
2023-01-04T00:46:38.105Z,93.49
2023-01-04T00:51:43.006Z,92.17
2023-01-04T00:56:45.833Z,93.71
2023-01-04T01:01:49.179Z,93.66
2023-01-04T01:06:53.753Z,93.14
2023-01-04T01:11:56.595Z,93.02
2023-01-04T01:16:59.668Z,93.76
2023-01-04T01:22:04.394Z,91.15
2023-01-04T01:27:07.387Z,92.50
2023-01-04T01:32:11.034Z,89.88
2023-01-04T01:37:15.542Z,92.54
2023-01-04T01:42:19.690Z,92.71
2023-01-04T01:47:24.201Z,92.11
2023-01-04T01:52:31.717Z,93.89
2023-01-04T01:57:35.257Z,93.50
2023-01-04T02:02:38.661Z,93.02
2023-01-04T02:07:43.702Z,93.13
2023-01-04T02:12:47.302Z,94.48
2023-01-04T02:17:52.110Z,93.75
2023-01-04T02:23:12.481Z,93.38
2023-01-04T02:28:26.713Z,94.34
2023-01-04T02:33:37.790Z,93.76
2023-01-04T02:38:46.286Z,94.10
2023-01-04T02:43:53.187Z,94.12
2023-01-04T02:48:59.251Z,93.21
2023-01-04T02:54:03.773Z,92.08
2023-01-04T02:59:24.142Z,92.80
2023-01-04T03:04:38.741Z,92.42
2023-01-04T03:09:43.906Z,91.16
2023-01-04T03:14:50.593Z,92.53
2023-01-04T03:19:57.186Z,92.65
2023-01-04T03:25:01.117Z,93.61
2023-01-04T03:30:06.333Z,93.50
2023-01-04T03:35:10.903Z,94.01
2023-01-04T03:40:25.580Z,93.66
2023-01-04T03:45:31.770Z,93.61
2023-01-04T03:50:37.849Z,93.31
2023-01-04T03:55:42.365Z,93.65
2023-01-04T04:00:46.939Z,93.88
2023-01-04T04:05:51.559Z,92.78
2023-01-04T04:10:54.912Z,93.30
2023-01-04T04:15:57.783Z,92.26
2023-01-04T04:21:02.329Z,94.39
2023-01-04T04:26:05.347Z,95.09
2023-01-04T04:31:08.223Z,95.00
2023-01-04T04:36:12.882Z,94.56
2023-01-04T04:41:15.823Z,95.54
2023-01-04T04:46:18.724Z,95.34
2023-01-04T04:51:23.279Z,96.03
2023-01-04T04:56:26.472Z,96.17
2023-01-04T05:01:29.366Z,97.24
2023-01-04T05:06:34.661Z,98.00
2023-01-04T05:11:37.522Z,97.29
2023-01-04T05:16:40.483Z,97.48
2023-01-04T05:21:45.072Z,97.99
2023-01-04T05:26:47.946Z,97.50
2023-01-04T05:31:50.856Z,95.54
2023-01-04T05:36:55.413Z,96.72
2023-01-04T05:41:58.286Z,97.34
2023-01-04T05:47:01.155Z,96.96
2023-01-04T05:52:05.677Z,96.20
2023-01-04T05:57:08.798Z,96.57
2023-01-04T06:02:16.042Z,95.73
2023-01-04T06:07:20.650Z,95.20
2023-01-04T06:12:23.532Z,95.99
2023-01-04T06:17:26.416Z,96.42
2023-01-04T06:22:30.952Z,95.25
2023-01-04T06:27:33.795Z,95.91
2023-01-04T06:32:36.720Z,96.33
2023-01-04T06:37:41.220Z,96.23
2023-01-04T06:42:44.047Z,96.38
2023-01-04T06:47:46.866Z,95.14
2023-01-04T06:52:51.399Z,94.62
2023-01-04T06:57:59.309Z,94.53
2023-01-04T07:03:12.648Z,95.54
2023-01-04T07:08:20.095Z,93.93
2023-01-04T07:13:22.949Z,95.40
2023-01-04T07:18:25.871Z,96.50
2023-01-04T07:23:30.396Z,97.66
2023-01-04T07:28:33.256Z,97.07
2023-01-04T07:33:36.123Z,97.35
2023-01-04T07:38:40.647Z,97.51
2023-01-04T07:43:43.481Z,96.99
2023-01-04T07:48:46.358Z,97.02
2023-01-04T07:53:50.934Z,97.25
2023-01-04T07:58:53.819Z,97.16
2023-01-04T08:03:56.656Z,96.68
2023-01-04T08:09:01.495Z,96.77
2023-01-04T08:14:04.600Z,96.50
2023-01-04T08:19:08.443Z,96.79
2023-01-04T08:24:13.751Z,97.17
2023-01-04T08:29:17.075Z,96.99
2023-01-04T08:34:19.989Z,97.45
2023-01-04T08:39:24.495Z,96.29
2023-01-04T08:44:27.327Z,97.96
2023-01-04T08:49:30.163Z,96.58
2023-01-04T08:59:33.596Z,94.88
2023-01-04T09:04:37.382Z,95.38
2023-01-04T09:09:41.148Z,95.73
2023-01-04T09:14:46.407Z,95.84
2023-01-04T09:19:50.078Z,95.19
2023-01-04T09:24:53.719Z,95.61
2023-01-04T09:29:59.045Z,97.02
2023-01-04T09:35:02.694Z,97.74
2023-01-04T09:40:07.497Z,98.33
2023-01-04T09:45:24.666Z,97.70
2023-01-04T09:50:33.456Z,97.13
2023-01-04T09:55:41.838Z,97.48
2023-01-04T10:00:51.042Z,97.66
2023-01-04T10:05:56.357Z,97.63
2023-01-04T10:11:19.259Z,97.86
2023-01-04T10:22:10.603Z,98.33
2023-01-04T10:27:25.116Z,98.95
2023-01-04T10:32:40.013Z,98.60
2023-01-04T10:37:44.154Z,98.30
2023-01-04T10:42:57.836Z,99.00
2023-01-04T10:48:08.968Z,98.78
2023-01-04T10:53:17.683Z,99.00
2023-01-04T10:58:27.558Z,98.65
2023-01-04T11:03:38.572Z,98.52
2023-01-04T11:08:50.645Z,98.60
2023-01-04T11:13:54.502Z,98.71
2023-01-04T11:19:00.268Z,100.00
2023-01-04T11:24:30.866Z,99.24
2023-01-04T11:29:38.622Z,99.38
2023-01-04T11:34:48.576Z,99.04
2023-01-04T11:39:52.206Z,99.22
2023-01-04T11:44:59.999Z,99.59
2023-01-04T11:50:06.416Z,99.71
2023-01-04T11:55:17.103Z,100.00
2023-01-04T12:00:21.647Z,100.00
2023-01-04T12:05:30.300Z,100.00
2023-01-04T12:10:34.449Z,100.00
2023-01-04T12:15:46.624Z,100.00
2023-01-04T12:20:52.035Z,100.00
2023-01-04T12:25:56.636Z,100.00
2023-01-04T12:31:31.010Z,100.00
2023-01-04T12:37:05.296Z,100.00
2023-01-04T12:42:11.593Z,100.00
2023-01-04T12:47:47.645Z,100.00
2023-01-04T12:53:11.193Z,100.00
2023-01-04T12:59:23.410Z,100.00
2023-01-04T13:04:28.559Z,100.00
2023-01-04T13:09:46.423Z,100.00
2023-01-04T13:14:55.290Z,100.00
2023-01-04T13:19:58.971Z,100.00
2023-01-04T13:25:04.918Z,100.00
2023-01-04T13:30:23.299Z,100.00
2023-01-04T13:35:26.968Z,100.00
2023-01-04T13:40:34.495Z,100.00
2023-01-04T13:46:02.094Z,100.00
2023-01-04T13:51:17.047Z,100.00
2023-01-04T13:56:23.910Z,100.00
2023-01-04T14:01:30.816Z,100.00
2023-01-04T14:06:40.627Z,100.00
2023-01-04T14:11:50.592Z,100.00
2023-01-04T14:17:10.056Z,100.00
2023-01-04T14:22:50.566Z,100.00
2023-01-04T14:28:19.668Z,100.00
2023-01-04T14:33:28.605Z,100.00
2023-01-04T14:38:37.719Z,100.00
2023-01-04T14:43:49.383Z,100.00
2023-01-04T14:48:53.079Z,100.00
2023-01-04T14:53:56.734Z,100.00
2023-01-04T14:59:02.068Z,100.00
2023-01-04T15:04:06.072Z,100.00
2023-01-04T15:09:11.491Z,100.00
2023-01-04T15:14:16.944Z,100.00
2023-01-04T15:19:20.586Z,100.00
2023-01-04T15:24:24.329Z,100.00
2023-01-04T15:29:30.694Z,100.00
2023-01-04T15:34:33.687Z,100.00
2023-01-04T15:39:37.529Z,100.00
2023-01-04T15:44:44.429Z,100.00
2023-01-04T15:49:48.094Z,100.00
2023-01-04T15:54:51.739Z,100.00
2023-01-04T15:59:57.189Z,100.00
2023-01-04T16:05:00.861Z,100.00
2023-01-04T16:10:04.847Z,100.00
2023-01-04T16:15:12.551Z,100.00
2023-01-04T16:20:17.635Z,100.00
2023-01-04T16:25:21.310Z,100.00
2023-01-04T16:30:29.815Z,100.00
2023-01-04T16:35:33.668Z,100.00
2023-01-04T16:40:40.021Z,100.00
2023-01-04T16:45:44.594Z,100.00
2023-01-04T16:50:48.298Z,100.00
2023-01-04T16:55:51.967Z,100.00
2023-01-04T17:00:57.337Z,100.00
2023-01-04T17:06:01.028Z,100.00
2023-01-04T17:11:50.879Z,100.00
2023-01-04T17:16:37.192Z,100.00
2023-01-04T17:21:40.867Z,100.00
2023-01-04T17:26:44.651Z,100.00
2023-01-04T17:31:50.015Z,100.00
2023-01-04T17:36:53.761Z,100.00
2023-01-04T17:41:57.400Z,100.00
2023-01-04T17:47:02.783Z,100.00
2023-01-04T17:52:08.846Z,100.00
2023-01-04T17:57:12.704Z,100.00
2023-01-04T18:02:18.031Z,100.00
2023-01-04T18:07:21.696Z,100.00
2023-01-04T18:12:25.342Z,100.00
2023-01-04T18:17:31.682Z,100.00
2023-01-04T18:22:35.568Z,100.00
2023-01-04T18:27:39.264Z,100.00
2023-01-04T18:32:44.570Z,100.00
2023-01-04T18:37:48.195Z,100.00
2023-01-04T18:42:52.165Z,100.00
2023-01-04T18:47:58.242Z,100.00
2023-01-04T18:53:01.907Z,100.00
2023-01-04T18:58:05.564Z,100.00
2023-01-04T19:03:18.024Z,100.00
2023-01-04T19:08:22.150Z,100.00
2023-01-04T19:13:25.839Z,100.00
2023-01-04T19:18:31.171Z,100.00
2023-01-04T19:23:34.855Z,100.00
2023-01-04T19:28:38.524Z,100.00
2023-01-04T19:33:44.006Z,100.00
2023-01-04T19:38:47.747Z,100.00
2023-01-04T19:43:51.797Z,100.00
2023-01-04T19:48:57.137Z,100.00
2023-01-04T19:54:00.774Z,100.00
2023-01-04T19:59:04.433Z,100.00
2023-01-04T20:04:09.719Z,100.00
2023-01-04T20:09:13.343Z,100.00
2023-01-04T20:14:16.979Z,100.00
2023-01-04T20:19:22.335Z,100.00
2023-01-04T20:24:25.997Z,100.00
2023-01-04T20:29:29.669Z,100.00
2023-01-04T20:34:35.056Z,100.00
2023-01-04T20:39:38.883Z,100.00
2023-01-04T20:44:42.545Z,100.00
2023-01-04T20:49:48.234Z,100.00
2023-01-04T20:54:51.908Z,100.00
2023-01-04T20:59:56.249Z,100.00
2023-01-04T21:05:01.561Z,100.00
2023-01-04T21:10:05.752Z,100.00
2023-01-04T21:15:10.297Z,100.00
2023-01-04T21:20:15.828Z,100.00
2023-01-04T21:25:19.476Z,100.00
2023-01-04T21:30:23.146Z,100.00
2023-01-04T21:35:28.925Z,100.00
2023-01-04T21:40:32.651Z,100.00
2023-01-04T21:45:39.929Z,100.00
2023-01-04T21:50:45.313Z,100.00
2023-01-04T21:55:48.967Z,100.00
2023-01-04T22:00:52.629Z,100.00
2023-01-04T22:06:02.011Z,100.00
2023-01-04T22:11:05.819Z,100.00
2023-01-04T22:16:11.489Z,100.00
2023-01-04T22:21:18.692Z,100.00
2023-01-04T22:26:22.338Z,100.00
2023-01-04T22:31:26.002Z,100.00
2023-01-04T22:36:31.355Z,100.00
2023-01-04T22:41:35.271Z,100.00
2023-01-04T22:46:42.033Z,100.00
2023-01-04T22:51:47.446Z,100.00
2023-01-04T22:56:51.738Z,100.00
2023-01-04T23:01:55.406Z,100.00
2023-01-04T23:07:02.081Z,100.00
2023-01-04T23:12:06.059Z,100.00
2023-01-04T23:17:09.738Z,100.00
2023-01-04T23:22:15.151Z,100.00
2023-01-04T23:27:20.993Z,100.00
2023-01-04T23:32:24.622Z,100.00
2023-01-04T23:37:31.924Z,100.00
2023-01-04T23:42:35.862Z,100.00
2023-01-04T23:47:39.642Z,100.00
2023-01-04T23:52:45.017Z,100.00
2023-01-04T23:57:48.622Z,100.00
